Time;durP1;ratioP1;P1;durP2;ratioP2;P2;SDS_P1;SDS_P2;PMS_P1;PMS_P2;Temp;Humidity;BMP_temperature;BMP_pressure;BME280_temperature;BME280_humidity;BME280_pressure;Samples;Min_cycle;Max_cycle;Signal;HPM_P1;HPM_P2
2021/12/19 00:02:43;;;;;;;44.83;33.17;;;2.80;99.90;;;;;;5013707;28;20807;-75
2021/12/19 00:10:39;;;;;;;42.13;31.83;;;2.70;99.90;;;;;;5027371;28;20466;-75
2021/12/19 00:13:08;;;;;;;40.60;31.93;;;2.60;99.90;;;;;;5025795;28;20195;-74
2021/12/19 00:15:35;;;;;;;42.67;31.83;;;2.60;99.90;;;;;;5025873;28;20480;-75
2021/12/19 00:18:02;;;;;;;48.13;33.90;;;2.60;99.90;;;;;;5016221;28;20199;-75
2021/12/19 00:20:29;;;;;;;50.97;36.10;;;2.50;99.90;;;;;;5029841;28;20213;-75
2021/12/19 00:22:56;;;;;;;52.60;37.43;;;2.50;99.90;;;;;;5029292;28;20196;-75
2021/12/19 00:25:23;;;;;;;46.23;33.40;;;2.50;99.90;;;;;;5032635;28;20585;-75
2021/12/19 00:27:50;;;;;;;46.03;33.60;;;2.40;99.90;;;;;;5040669;28;20202;-75
2021/12/19 00:30:18;;;;;;;45.67;35.13;;;2.50;99.90;;;;;;5036869;28;20236;-75
2021/12/19 00:32:45;;;;;;;39.43;32.00;;;2.60;99.90;;;;;;5024059;28;20470;-75
2021/12/19 00:35:12;;;;;;;43.73;33.30;;;2.60;99.90;;;;;;5025540;28;20427;-74
2021/12/19 00:37:38;;;;;;;43.53;32.50;;;2.60;99.90;;;;;;5032362;28;20596;-75
2021/12/19 00:40:06;;;;;;;42.33;32.93;;;2.60;99.90;;;;;;5032430;28;20611;-75
2021/12/19 00:42:36;;;;;;;41.60;32.80;;;2.60;99.90;;;;;;5028676;28;20959;-75
2021/12/19 00:45:16;;;;;;;42.40;31.60;;;2.60;99.90;;;;;;5028614;28;20291;-75
2021/12/19 00:47:44;;;;;;;41.07;32.47;;;2.60;99.90;;;;;;5012377;28;20458;-75
2021/12/19 00:50:12;;;;;;;42.63;31.50;;;2.60;99.90;;;;;;5031019;28;20222;-75
2021/12/19 00:52:39;;;;;;;43.97;32.03;;;2.60;99.90;;;;;;5023918;28;20219;-75
2021/12/19 00:55:07;;;;;;;40.47;31.50;;;2.60;99.90;;;;;;5025172;28;20192;-75
2021/12/19 00:57:34;;;;;;;43.87;31.70;;;2.60;99.90;;;;;;5017640;28;20387;-75
2021/12/19 01:00:01;;;;;;;39.20;31.10;;;2.60;99.90;;;;;;5033110;28;20451;-75
2021/12/19 01:02:27;;;;;;;38.57;30.47;;;2.60;99.90;;;;;;5035267;28;20208;-75
2021/12/19 01:04:56;;;;;;;38.97;29.80;;;2.60;99.90;;;;;;5033220;28;20196;-75
2021/12/19 01:07:23;;;;;;;42.47;31.43;;;2.60;99.90;;;;;;5023470;28;20457;-75
2021/12/19 01:09:49;;;;;;;40.73;32.47;;;2.50;99.90;;;;;;5038796;28;20315;-75
2021/12/19 01:12:16;;;;;;;40.57;32.07;;;2.50;99.90;;;;;;5032812;28;20216;-74
2021/12/19 01:14:43;;;;;;;43.03;33.07;;;2.50;99.90;;;;;;5032674;28;20435;-75
2021/12/19 01:17:10;;;;;;;47.13;33.00;;;2.50;99.90;;;;;;5018260;28;20526;-75
2021/12/19 01:19:37;;;;;;;51.60;35.03;;;2.60;99.90;;;;;;5032704;28;20458;-75
2021/12/19 01:22:05;;;;;;;43.27;33.83;;;2.60;99.90;;;;;;5021267;28;20438;-75
2021/12/19 01:24:33;;;;;;;42.27;32.17;;;2.70;99.90;;;;;;5024352;28;20435;-75
2021/12/19 01:27:03;;;;;;;38.90;30.77;;;2.70;99.90;;;;;;5032545;28;20422;-75
2021/12/19 01:29:30;;;;;;;47.17;35.27;;;2.60;99.90;;;;;;5026648;28;20300;-75
2021/12/19 01:31:56;;;;;;;46.97;33.90;;;2.60;99.90;;;;;;5019093;28;20701;-75
2021/12/19 01:34:24;;;;;;;46.17;36.53;;;2.70;99.90;;;;;;5013135;28;20454;-75
2021/12/19 01:36:50;;;;;;;45.40;34.30;;;2.60;99.90;;;;;;5013771;28;20459;-75
2021/12/19 01:39:19;;;;;;;44.80;34.20;;;2.60;99.90;;;;;;5031736;28;20430;-75
2021/12/19 01:41:50;;;;;;;42.43;33.30;;;2.70;99.90;;;;;;5014748;28;20454;-75
2021/12/19 01:44:17;;;;;;;47.70;34.67;;;2.60;99.90;;;;;;5032038;28;20195;-74
2021/12/19 01:46:46;;;;;;;47.27;34.43;;;2.60;99.90;;;;;;5032068;28;20446;-75
2021/12/19 01:49:14;;;;;;;47.20;35.10;;;2.60;99.90;;;;;;5028492;28;20199;-75
2021/12/19 01:51:41;;;;;;;43.90;33.67;;;2.60;99.90;;;;;;5031655;28;20234;-75
2021/12/19 01:54:08;;;;;;;43.10;34.10;;;2.60;99.90;;;;;;5029789;28;20247;-75
2021/12/19 01:56:37;;;;;;;47.57;34.60;;;2.60;99.90;;;;;;5029616;28;20191;-75
2021/12/19 01:59:06;;;;;;;44.93;33.57;;;2.60;99.90;;;;;;5031752;28;20800;-75
2021/12/19 02:01:41;;;;;;;50.13;34.80;;;2.50;99.90;;;;;;5032048;28;20435;-76
2021/12/19 02:04:08;;;;;;;45.87;34.70;;;2.50;99.90;;;;;;5014257;28;20250;-75
2021/12/19 02:06:35;;;;;;;43.60;33.37;;;2.50;99.90;;;;;;5027224;28;20432;-75
2021/12/19 02:09:07;;;;;;;48.50;35.50;;;2.60;99.90;;;;;;5028532;28;20199;-75
2021/12/19 02:11:34;;;;;;;44.17;34.63;;;2.50;99.90;;;;;;5014098;28;21029;-75
2021/12/19 02:14:07;;;;;;;37.97;31.50;;;2.40;99.90;;;;;;5022374;28;20450;-74
2021/12/19 02:16:37;;;;;;;44.10;31.17;;;2.50;99.90;;;;;;5024504;28;20615;-75
2021/12/19 02:19:07;;;;;;;40.53;31.87;;;2.50;99.90;;;;;;5014104;28;20443;-75
2021/12/19 02:21:37;;;;;;;40.20;31.77;;;2.50;99.90;;;;;;5027472;28;20597;-75
2021/12/19 02:24:08;;;;;;;38.27;30.40;;;2.60;99.90;;;;;;5028306;28;20438;-75
2021/12/19 02:26:37;;;;;;;42.10;32.00;;;2.60;99.90;;;;;;5031432;28;20439;-75
2021/12/19 02:29:08;;;;;;;45.83;33.30;;;2.50;99.90;;;;;;5031347;28;20438;-75
2021/12/19 02:31:35;;;;;;;40.20;32.33;;;2.60;99.90;;;;;;5030312;28;20601;-75
2021/12/19 02:34:06;;;;;;;42.03;32.90;;;2.60;99.90;;;;;;5031474;28;20503;-75
2021/12/19 02:36:50;;;;;;;46.37;34.10;;;2.50;99.90;;;;;;5017792;28;20455;-75
2021/12/19 02:39:45;;;;;;;43.33;33.00;;;2.50;99.90;;;;;;5036647;28;20567;-75
2021/12/19 02:50:26;;;;;;;43.17;32.00;;;2.30;99.90;;;;;;5023387;28;20446;-75
2021/12/19 02:52:53;;;;;;;41.53;31.27;;;2.30;99.90;;;;;;5024457;28;20468;-76
2021/12/19 02:55:22;;;;;;;42.03;31.70;;;2.30;99.90;;;;;;5027696;28;20438;-75
2021/12/19 02:57:49;;;;;;;45.17;32.80;;;2.30;99.90;;;;;;5028097;28;20207;-75
2021/12/19 03:00:21;;;;;;;44.43;32.67;;;2.30;99.90;;;;;;5036430;28;20532;-75
2021/12/19 03:02:48;;;;;;;41.00;30.47;;;2.30;99.90;;;;;;5025821;28;20427;-75
2021/12/19 03:05:15;;;;;;;44.80;31.53;;;2.30;99.90;;;;;;5025060;28;20444;-75
2021/12/19 03:07:43;;;;;;;40.73;31.30;;;2.20;99.90;;;;;;5033634;28;20463;-75
2021/12/19 03:10:51;;;;;;;46.53;32.27;;;2.30;99.90;;;;;;5026975;28;20459;-75
2021/12/19 03:13:28;;;;;;;44.17;32.33;;;2.30;99.90;;;;;;5033172;28;20298;-75
2021/12/19 03:18:41;;;;;;;48.63;33.10;;;2.20;99.90;;;;;;5028300;28;20454;-75
2021/12/19 03:21:12;;;;;;;43.37;32.33;;;2.10;99.90;;;;;;5017336;28;20475;-75
2021/12/19 03:23:39;;;;;;;45.17;33.13;;;2.20;99.90;;;;;;5030033;28;20431;-75
2021/12/19 03:26:08;;;;;;;44.40;33.13;;;2.20;99.90;;;;;;5031396;28;20439;-75
2021/12/19 03:28:37;;;;;;;45.73;32.47;;;2.20;99.90;;;;;;5027512;28;20440;-75
2021/12/19 03:31:04;;;;;;;41.43;32.03;;;2.20;99.90;;;;;;5038774;28;20484;-75
2021/12/19 03:33:31;;;;;;;45.93;33.07;;;2.20;99.90;;;;;;5041733;28;20466;-75
2021/12/19 03:35:58;;;;;;;43.87;33.10;;;2.20;99.90;;;;;;5027187;28;20431;-75
2021/12/19 03:38:26;;;;;;;45.03;32.03;;;2.30;99.90;;;;;;5013327;28;20846;-75
2021/12/19 03:41:07;;;;;;;47.23;34.23;;;2.30;99.90;;;;;;5021666;28;20220;-75
2021/12/19 03:43:36;;;;;;;50.37;34.03;;;2.20;99.90;;;;;;5026698;28;20434;-75
2021/12/19 03:46:03;;;;;;;43.90;33.70;;;2.20;99.90;;;;;;5031202;28;20431;-75
2021/12/19 03:48:30;;;;;;;43.73;32.63;;;2.20;99.90;;;;;;5030950;28;20437;-75
2021/12/19 03:50:57;;;;;;;48.83;33.20;;;2.20;99.90;;;;;;5026300;28;20460;-75
2021/12/19 03:53:24;;;;;;;49.67;34.03;;;2.20;99.90;;;;;;5026044;28;20207;-75
2021/12/19 03:55:52;;;;;;;47.07;33.73;;;2.20;99.90;;;;;;5010026;28;20802;-75
2021/12/19 03:58:19;;;;;;;43.13;33.07;;;2.20;99.90;;;;;;5023841;28;20697;-75
2021/12/19 04:00:48;;;;;;;48.50;33.23;;;2.20;99.90;;;;;;5027920;28;20447;-75
2021/12/19 04:03:18;;;;;;;46.27;31.70;;;2.20;99.90;;;;;;5028262;28;20454;-75
2021/12/19 04:05:46;;;;;;;46.57;33.00;;;2.10;99.90;;;;;;5028035;28;20447;-75
2021/12/19 04:08:13;;;;;;;49.67;31.63;;;2.10;99.90;;;;;;5025343;28;20455;-75
2021/12/19 04:10:40;;;;;;;43.57;32.30;;;2.10;99.90;;;;;;5027728;28;20815;-76
2021/12/19 04:13:08;;;;;;;46.13;33.17;;;2.10;99.90;;;;;;5015775;28;20497;-78
2021/12/19 04:15:35;;;;;;;46.03;33.33;;;2.20;99.90;;;;;;5028123;28;20457;-79
2021/12/19 04:18:03;;;;;;;49.87;32.77;;;2.20;99.90;;;;;;5008921;28;20465;-77
2021/12/19 04:20:30;;;;;;;51.73;35.07;;;2.10;99.90;;;;;;5028546;28;20466;-76
2021/12/19 04:22:57;;;;;;;51.90;33.30;;;2.10;99.90;;;;;;5029278;28;20450;-75
2021/12/19 04:25:24;;;;;;;44.60;31.63;;;2.10;99.90;;;;;;5029406;28;20448;-75
2021/12/19 04:27:51;;;;;;;49.47;32.13;;;2.10;99.90;;;;;;5013635;28;20451;-76
2021/12/19 04:30:21;;;;;;;52.10;35.80;;;2.10;99.90;;;;;;5024929;28;20459;-76
2021/12/19 04:32:57;;;;;;;51.57;34.23;;;2.10;99.90;;;;;;5014975;28;20466;-76
2021/12/19 04:35:28;;;;;;;57.37;34.43;;;2.20;99.90;;;;;;5033568;28;20439;-76
2021/12/19 04:38:30;;;;;;;53.57;33.67;;;2.20;99.90;;;;;;5026641;28;20228;-76
2021/12/19 04:41:08;;;;;;;49.67;32.00;;;2.10;99.90;;;;;;5010195;28;20491;-76
2021/12/19 04:54:47;;;;;;;47.27;31.20;;;2.00;99.90;;;;;;5027296;28;20442;-76
2021/12/19 04:57:28;;;;;;;49.23;32.53;;;2.10;99.90;;;;;;5028415;28;20507;-76
2021/12/19 04:59:59;;;;;;;47.90;33.37;;;2.10;99.90;;;;;;5011219;28;20478;-75
2021/12/19 05:02:40;;;;;;;51.03;32.63;;;2.10;99.90;;;;;;5032488;28;20223;-77
2021/12/19 05:16:12;;;;;;;49.03;32.53;;;2.00;99.90;;;;;;5024302;28;20761;-77
2021/12/19 05:18:40;;;;;;;49.27;31.10;;;2.00;99.90;;;;;;5014633;28;20508;-76
2021/12/19 05:21:13;;;;;;;45.57;30.93;;;2.10;99.90;;;;;;5040894;28;20524;-76
2021/12/19 05:24:17;;;;;;;46.60;31.30;;;2.00;99.90;;;;;;5032124;28;20442;-76
2021/12/19 05:26:42;;;;;;;48.07;31.17;;;2.00;99.90;;;;;;5025207;28;20525;-76
2021/12/19 05:29:09;;;;;;;43.60;29.60;;;2.00;99.90;;;;;;5030363;28;20843;-77
2021/12/19 05:31:36;;;;;;;41.60;29.13;;;2.00;99.90;;;;;;5028013;28;20492;-77
2021/12/19 05:34:03;;;;;;;44.40;30.37;;;2.00;99.90;;;;;;5025720;28;20883;-77
2021/12/19 05:47:29;;;;;;;45.07;29.43;;;1.90;99.90;;;;;;5031975;28;20427;-75
2021/12/19 05:49:56;;;;;;;43.97;29.93;;;1.80;99.90;;;;;;5025735;28;20459;-75
2021/12/19 05:52:23;;;;;;;41.83;26.77;;;1.80;99.90;;;;;;5026692;28;20474;-75
2021/12/19 05:54:51;;;;;;;41.47;28.83;;;1.70;99.90;;;;;;5033846;28;20435;-74
2021/12/19 05:57:20;;;;;;;46.37;30.17;;;1.70;99.90;;;;;;5011799;28;21086;-73
2021/12/19 05:59:47;;;;;;;45.37;29.90;;;1.70;99.90;;;;;;5025741;28;20475;-75
2021/12/19 06:02:13;;;;;;;35.77;27.27;;;1.70;99.90;;;;;;5013918;28;20457;-75
2021/12/19 06:04:40;;;;;;;43.87;27.83;;;1.60;99.90;;;;;;5013617;28;20446;-75
2021/12/19 06:07:07;;;;;;;46.63;29.23;;;1.60;99.90;;;;;;5025677;28;20460;-75
2021/12/19 06:09:34;;;;;;;43.00;28.43;;;1.50;99.90;;;;;;5023985;28;20472;-75
2021/12/19 06:12:03;;;;;;;37.10;27.67;;;1.50;99.90;;;;;;4995434;28;20456;-75
2021/12/19 06:14:33;;;;;;;41.97;28.50;;;1.50;99.90;;;;;;5015388;28;20440;-75
2021/12/19 06:17:00;;;;;;;39.90;27.80;;;1.50;99.90;;;;;;5029080;28;20761;-76
2021/12/19 06:19:27;;;;;;;39.70;27.80;;;1.50;99.90;;;;;;5031333;28;20461;-76
2021/12/19 06:21:54;;;;;;;41.00;28.60;;;1.50;99.90;;;;;;5029080;28;20445;-76
2021/12/19 06:24:21;;;;;;;40.47;27.57;;;1.40;99.90;;;;;;5032688;28;20449;-76
2021/12/19 06:26:48;;;;;;;41.73;27.33;;;1.40;99.90;;;;;;5027020;28;20803;-76
2021/12/19 06:29:16;;;;;;;47.43;30.13;;;1.40;99.90;;;;;;5020965;28;20454;-76
2021/12/19 06:31:43;;;;;;;43.63;28.43;;;1.40;99.90;;;;;;5026346;28;20441;-77
2021/12/19 06:34:10;;;;;;;44.40;29.47;;;1.40;99.90;;;;;;5028624;28;20476;-77
2021/12/19 06:36:38;;;;;;;46.30;29.83;;;1.40;99.90;;;;;;5025531;28;20521;-78
2021/12/19 06:39:05;;;;;;;51.77;31.13;;;1.40;99.90;;;;;;5027757;28;20476;-77
2021/12/19 06:41:31;;;;;;;42.47;28.13;;;1.40;99.90;;;;;;5027691;28;20923;-76
2021/12/19 06:43:58;;;;;;;44.43;28.97;;;1.40;99.90;;;;;;5031502;28;20433;-76
2021/12/19 06:46:26;;;;;;;44.80;27.47;;;1.40;99.90;;;;;;5005073;28;20463;-76
2021/12/19 06:48:53;;;;;;;45.93;29.50;;;1.40;99.90;;;;;;5026563;28;20439;-76
2021/12/19 06:51:23;;;;;;;48.77;30.47;;;1.30;99.90;;;;;;5034936;28;20897;-76
2021/12/19 06:53:50;;;;;;;45.37;30.30;;;1.30;99.90;;;;;;5016546;28;21177;-76
2021/12/19 06:56:17;;;;;;;48.60;31.13;;;1.30;99.90;;;;;;5028166;28;20832;-76
2021/12/19 06:58:44;;;;;;;50.70;31.20;;;1.30;99.90;;;;;;5002954;28;20823;-75
2021/12/19 07:01:11;;;;;;;48.37;30.47;;;1.30;99.90;;;;;;5010774;28;20463;-75
2021/12/19 07:03:39;;;;;;;50.83;32.70;;;1.30;99.90;;;;;;5029391;28;20813;-76
2021/12/19 07:06:06;;;;;;;51.43;32.90;;;1.30;99.90;;;;;;5017720;28;20450;-76
2021/12/19 07:08:32;;;;;;;50.93;32.87;;;1.30;99.90;;;;;;5026426;28;20440;-76
2021/12/19 07:10:59;;;;;;;51.03;31.57;;;1.30;99.90;;;;;;5014051;28;20477;-76
2021/12/19 07:13:26;;;;;;;52.13;31.67;;;1.30;99.90;;;;;;5010698;28;20464;-77
2021/12/19 07:15:55;;;;;;;50.50;30.83;;;1.30;99.90;;;;;;5021636;28;20443;-77
2021/12/19 07:18:22;;;;;;;48.50;30.90;;;1.30;99.90;;;;;;5010683;28;20464;-77
2021/12/19 07:20:50;;;;;;;47.27;31.33;;;1.30;99.90;;;;;;5012560;28;20476;-77
2021/12/19 07:23:19;;;;;;;47.13;31.57;;;1.40;99.90;;;;;;5013304;28;20467;-76
2021/12/19 07:25:46;;;;;;;44.37;29.10;;;1.40;99.90;;;;;;5030901;28;20447;-77
2021/12/19 07:28:13;;;;;;;42.73;29.73;;;1.40;99.90;;;;;;5032440;28;20442;-77
2021/12/19 07:30:41;;;;;;;44.53;29.43;;;1.50;99.90;;;;;;5030490;28;20484;-77
2021/12/19 07:33:10;;;;;;;45.47;29.00;;;1.50;99.90;;;;;;5012880;28;20527;-77
2021/12/19 07:35:41;;;;;;;49.77;30.90;;;1.50;99.90;;;;;;5030462;28;20451;-76
2021/12/19 07:38:11;;;;;;;41.17;27.17;;;1.50;99.90;;;;;;5008456;28;21323;-76
2021/12/19 07:40:46;;;;;;;37.10;26.47;;;1.50;99.90;;;;;;5019537;28;20462;-76
2021/12/19 07:43:13;;;;;;;41.47;27.57;;;1.40;99.90;;;;;;5025042;28;20445;-75
2021/12/19 07:45:40;;;;;;;42.60;27.17;;;1.50;99.90;;;;;;5007237;28;20447;-75
2021/12/19 07:48:07;;;;;;;42.20;27.63;;;1.50;99.90;;;;;;5014643;28;20453;-75
2021/12/19 07:50:34;;;;;;;36.77;26.00;;;1.50;99.90;;;;;;5019119;28;20453;-76
2021/12/19 07:53:03;;;;;;;44.23;27.87;;;1.40;99.90;;;;;;5017018;28;20479;-76
2021/12/19 07:55:32;;;;;;;41.43;27.20;;;1.40;99.90;;;;;;5019340;28;20434;-76
2021/12/19 07:57:59;;;;;;;41.70;27.30;;;1.40;99.90;;;;;;5024740;28;20442;-75
2021/12/19 08:00:26;;;;;;;44.27;29.30;;;1.30;99.90;;;;;;5002814;28;20495;-75
2021/12/19 08:02:53;;;;;;;46.83;30.80;;;1.40;99.90;;;;;;5015631;28;20943;-76
2021/12/19 08:05:22;;;;;;;42.83;28.83;;;1.40;99.90;;;;;;5017737;28;20524;-76
2021/12/19 08:07:55;;;;;;;51.73;30.03;;;1.30;99.90;;;;;;5018749;28;20457;-76
2021/12/19 08:13:09;;;;;;;43.87;28.87;;;1.20;99.90;;;;;;5009799;28;20474;-76
2021/12/19 08:15:37;;;;;;;38.67;27.80;;;1.20;99.90;;;;;;5010258;28;20505;-75
2021/12/19 08:18:05;;;;;;;49.63;29.23;;;1.30;99.90;;;;;;5018403;28;20437;-74
2021/12/19 08:20:32;;;;;;;42.00;28.93;;;1.40;99.90;;;;;;5033938;28;20448;-73
2021/12/19 08:22:59;;;;;;;42.57;27.87;;;1.40;99.90;;;;;;5030000;28;20471;-74
2021/12/19 08:25:28;;;;;;;41.37;28.73;;;1.50;99.90;;;;;;5015965;28;20826;-74
2021/12/19 08:27:56;;;;;;;45.23;28.20;;;1.50;99.90;;;;;;5015618;28;20471;-76
2021/12/19 08:30:24;;;;;;;41.83;28.53;;;1.50;99.90;;;;;;5031652;28;20474;-76
2021/12/19 08:32:52;;;;;;;39.97;28.10;;;1.40;99.90;;;;;;5021974;28;20459;-76
2021/12/19 08:35:22;;;;;;;42.63;29.80;;;1.50;99.90;;;;;;5053565;22;20495;-77
2021/12/19 08:37:56;;;;;;;44.70;29.03;;;1.50;99.90;;;;;;5028669;28;20461;-78
2021/12/19 08:40:27;;;;;;;45.63;28.20;;;1.50;99.90;;;;;;5025883;28;20480;-78
2021/12/19 08:43:05;;;;;;;44.50;30.33;;;1.60;99.90;;;;;;5027115;28;20466;-79
2021/12/19 08:45:35;;;;;;;49.03;30.27;;;1.70;99.90;;;;;;5019722;28;20476;-81
2021/12/19 08:48:04;;;;;;;45.00;28.63;;;1.60;99.90;;;;;;5031664;28;20444;-78
2021/12/19 08:50:34;;;;;;;41.07;27.33;;;1.60;99.90;;;;;;5033977;28;20453;-79
2021/12/19 08:53:04;;;;;;;39.20;27.60;;;1.60;99.90;;;;;;5031564;28;20455;-79
2021/12/19 08:55:34;;;;;;;41.60;27.87;;;1.60;99.90;;;;;;5022717;28;20459;-79
2021/12/19 08:58:01;;;;;;;46.40;29.30;;;1.70;99.90;;;;;;5025875;28;20459;-78
2021/12/19 09:00:30;;;;;;;47.30;29.80;;;1.70;99.90;;;;;;5015564;28;20437;-79
2021/12/19 09:03:05;;;;;;;49.77;35.87;;;1.60;99.90;;;;;;5025879;28;21010;-79
2021/12/19 09:05:39;;;;;;;50.97;30.17;;;1.60;99.90;;;;;;5016637;28;20478;-78
2021/12/19 09:08:06;;;;;;;40.73;27.37;;;1.60;99.90;;;;;;5027902;28;20995;-79
2021/12/19 09:10:34;;;;;;;37.27;28.33;;;1.60;99.90;;;;;;5031615;28;20441;-78
2021/12/19 09:13:01;;;;;;;38.80;26.07;;;1.60;99.90;;;;;;5026511;28;20464;-79
2021/12/19 09:15:31;;;;;;;37.60;26.10;;;1.70;99.90;;;;;;5013571;28;20995;-78
2021/12/19 09:17:58;;;;;;;32.80;23.73;;;1.70;99.90;;;;;;5019841;28;20439;-81
2021/12/19 09:20:29;;;;;;;36.03;25.30;;;1.70;99.90;;;;;;5025975;28;20447;-82
2021/12/19 09:22:59;;;;;;;38.63;25.60;;;1.70;99.90;;;;;;5023107;28;20447;-80
2021/12/19 09:25:26;;;;;;;34.70;25.13;;;1.70;99.90;;;;;;5017736;28;20903;-77
2021/12/19 09:27:53;;;;;;;35.10;25.30;;;1.70;99.90;;;;;;5039627;28;20443;-80
2021/12/19 09:30:20;;;;;;;36.10;25.40;;;1.70;99.90;;;;;;5018815;28;20452;-78
2021/12/19 09:32:50;;;;;;;37.27;25.30;;;1.70;99.90;;;;;;5028280;28;20442;-79
2021/12/19 09:35:19;;;;;;;36.70;24.83;;;1.70;99.90;;;;;;5026291;28;20485;-79
2021/12/19 09:37:47;;;;;;;37.33;25.10;;;1.60;99.90;;;;;;5008631;28;20510;-77
2021/12/19 09:40:21;;;;;;;46.13;27.73;;;1.60;99.90;;;;;;5020203;28;20431;-77
2021/12/19 09:42:50;;;;;;;37.93;26.47;;;1.50;99.90;;;;;;5020978;28;20458;-77
2021/12/19 09:45:18;;;;;;;41.93;27.67;;;1.60;99.90;;;;;;5019786;28;20486;-77
2021/12/19 09:47:45;;;;;;;34.03;25.27;;;1.80;99.90;;;;;;5022590;28;20821;-77
2021/12/19 09:50:12;;;;;;;36.00;25.93;;;1.80;99.90;;;;;;5021731;28;20454;-77
2021/12/19 09:52:39;;;;;;;38.23;25.97;;;1.80;99.90;;;;;;5019449;28;20450;-77
2021/12/19 09:55:08;;;;;;;40.43;26.20;;;1.80;99.90;;;;;;5015260;28;20573;-75
2021/12/19 09:57:35;;;;;;;38.43;25.97;;;1.80;99.90;;;;;;5020102;28;20445;-77
2021/12/19 10:00:03;;;;;;;39.03;27.23;;;1.80;99.90;;;;;;5020264;28;20436;-77
2021/12/19 10:02:41;;;;;;;37.77;25.40;;;1.70;99.90;;;;;;5015521;28;20491;-77
2021/12/19 10:05:20;;;;;;;41.77;27.07;;;1.80;99.90;;;;;;5020085;28;20480;-77
2021/12/19 10:07:50;;;;;;;38.40;25.43;;;1.80;99.90;;;;;;5019457;28;20450;-77
2021/12/19 10:10:26;;;;;;;35.90;25.13;;;1.80;99.90;;;;;;5021048;28;20458;-76
2021/12/19 10:12:57;;;;;;;38.00;25.50;;;1.90;99.90;;;;;;5024451;28;20487;-77
2021/12/19 10:15:29;;;;;;;35.30;23.77;;;1.90;99.90;;;;;;5025996;28;20483;-77
2021/12/19 10:18:02;;;;;;;37.23;25.30;;;1.90;99.90;;;;;;5019791;28;20440;-77
2021/12/19 10:20:44;;;;;;;37.17;25.97;;;1.90;99.90;;;;;;5018874;28;20435;-77
2021/12/19 10:23:13;;;;;;;38.77;26.47;;;1.90;99.90;;;;;;5013310;28;20458;-76
2021/12/19 10:25:42;;;;;;;34.83;25.00;;;2.00;99.90;;;;;;5025634;28;20850;-77
2021/12/19 10:28:11;;;;;;;34.23;25.47;;;2.00;99.90;;;;;;5013141;28;20840;-76
2021/12/19 10:30:40;;;;;;;33.37;26.07;;;2.10;99.90;;;;;;5020904;28;20455;-76
2021/12/19 10:33:09;;;;;;;39.83;26.83;;;2.10;99.90;;;;;;5019816;28;20436;-77
2021/12/19 10:35:39;;;;;;;39.90;26.07;;;2.10;99.90;;;;;;5023821;28;20474;-77
2021/12/19 10:38:08;;;;;;;40.57;27.17;;;2.10;99.90;;;;;;5017786;28;20463;-77
2021/12/19 10:40:35;;;;;;;37.07;26.37;;;2.10;99.90;;;;;;5019156;28;20450;-77
2021/12/19 10:43:05;;;;;;;34.40;25.83;;;2.00;99.90;;;;;;5021837;28;20964;-77
2021/12/19 10:45:43;;;;;;;38.07;26.77;;;1.90;99.90;;;;;;5018392;28;20450;-77
2021/12/19 10:48:20;;;;;;;37.53;26.00;;;1.80;99.90;;;;;;5021211;28;20437;-77
2021/12/19 10:50:49;;;;;;;39.70;27.00;;;1.80;99.90;;;;;;5022026;28;20457;-77
2021/12/19 10:53:17;;;;;;;35.33;25.20;;;2.00;99.90;;;;;;5016188;28;20440;-76
2021/12/19 10:55:46;;;;;;;38.17;25.37;;;2.10;99.90;;;;;;5017998;28;20868;-76
2021/12/19 10:58:33;;;;;;;40.70;27.43;;;2.10;99.90;;;;;;5020789;28;20495;-77
2021/12/19 11:01:18;;;;;;;42.20;26.87;;;2.00;99.90;;;;;;5018100;28;20458;-77
2021/12/19 11:03:57;;;;;;;35.13;25.13;;;2.00;99.90;;;;;;5012447;28;20446;-77
2021/12/19 11:06:29;;;;;;;40.60;28.53;;;2.00;99.90;;;;;;5018460;28;20565;-77
2021/12/19 11:08:58;;;;;;;37.93;27.53;;;1.90;99.90;;;;;;5021780;28;20449;-77
2021/12/19 11:11:47;;;;;;;39.97;26.50;;;2.00;99.90;;;;;;5021039;28;20519;-77
2021/12/19 11:14:18;;;;;;;38.73;25.53;;;2.10;99.90;;;;;;5022882;28;20223;-77
2021/12/19 11:16:46;;;;;;;36.00;26.40;;;2.10;99.90;;;;;;5022594;28;20776;-77
2021/12/19 11:19:13;;;;;;;30.43;23.97;;;2.10;99.90;;;;;;5020363;28;20838;-77
2021/12/19 11:21:42;;;;;;;35.60;25.77;;;2.10;99.90;;;;;;5023177;28;20457;-77
2021/12/19 11:24:11;;;;;;;32.60;23.80;;;2.10;99.90;;;;;;5015816;28;20479;-77
2021/12/19 11:26:40;;;;;;;32.33;24.17;;;2.10;99.90;;;;;;5017139;28;20875;-77
2021/12/19 11:29:08;;;;;;;31.60;24.37;;;2.20;99.90;;;;;;5022756;28;20609;-77
2021/12/19 11:31:38;;;;;;;31.57;24.07;;;2.30;99.90;;;;;;5020555;28;20442;-76
2021/12/19 11:34:30;;;;;;;30.97;24.50;;;2.20;99.90;;;;;;5024018;28;20550;-77
2021/12/19 11:37:01;;;;;;;39.83;26.27;;;2.20;99.90;;;;;;5021735;28;20208;-77
2021/12/19 11:39:31;;;;;;;34.60;24.47;;;2.30;99.90;;;;;;5018608;28;20196;-77
2021/12/19 11:42:03;;;;;;;32.20;24.83;;;2.30;99.90;;;;;;5023523;28;20468;-77
2021/12/19 11:44:36;;;;;;;37.70;26.23;;;2.30;99.90;;;;;;5026422;28;20482;-77
2021/12/19 11:47:09;;;;;;;33.63;25.60;;;2.40;99.90;;;;;;5022499;28;20464;-76
2021/12/19 11:49:36;;;;;;;36.27;24.97;;;2.40;99.90;;;;;;5028358;28;20451;-76
2021/12/19 11:52:26;;;;;;;36.37;25.30;;;2.30;99.90;;;;;;5022730;28;20534;-77
2021/12/19 11:55:19;;;;;;;33.47;24.10;;;2.10;99.90;;;;;;5019918;28;21066;-76
2021/12/19 11:58:29;;;;;;;36.87;25.70;;;2.10;99.90;;;;;;5039201;28;20507;-76
2021/12/19 12:01:00;;;;;;;35.93;25.60;;;2.10;99.90;;;;;;5022036;28;20523;-76
2021/12/19 12:03:31;;;;;;;32.70;25.20;;;2.10;99.90;;;;;;5029472;28;20443;-77
2021/12/19 12:06:25;;;;;;;31.30;24.33;;;2.10;99.90;;;;;;5025322;28;20435;-77
2021/12/19 12:09:34;;;;;;;32.10;24.23;;;2.20;99.90;;;;;;5019827;28;20483;-77
2021/12/19 12:12:18;;;;;;;34.03;24.23;;;2.30;99.90;;;;;;5024103;28;20455;-77
2021/12/19 12:14:56;;;;;;;31.33;23.57;;;2.30;99.90;;;;;;5027264;28;20470;-76
2021/12/19 12:17:32;;;;;;;35.10;25.27;;;2.40;99.90;;;;;;5029454;28;20486;-76
2021/12/19 12:20:09;;;;;;;33.77;25.40;;;2.40;99.90;;;;;;5029666;28;20657;-76
2021/12/19 12:22:39;;;;;;;37.80;26.83;;;2.40;99.90;;;;;;5024349;28;20454;-76
2021/12/19 12:25:17;;;;;;;37.00;26.30;;;2.30;99.90;;;;;;5025086;28;20467;-77
2021/12/19 12:27:47;;;;;;;35.97;25.53;;;2.30;99.90;;;;;;5022467;28;20455;-77
2021/12/19 12:30:16;;;;;;;37.43;27.40;;;2.30;99.90;;;;;;5024998;28;20236;-77
2021/12/19 12:32:43;;;;;;;37.97;26.40;;;2.30;99.90;;;;;;5025328;28;20212;-77
2021/12/19 12:35:13;;;;;;;34.47;25.40;;;2.30;99.90;;;;;;5016831;28;20225;-77
2021/12/19 12:37:40;;;;;;;34.37;26.17;;;2.30;99.90;;;;;;5023018;28;20438;-77
2021/12/19 12:40:23;;;;;;;34.87;24.50;;;2.40;99.90;;;;;;5022415;28;20548;-77
2021/12/19 12:43:10;;;;;;;33.93;25.87;;;2.40;99.90;;;;;;5025289;28;20826;-77
2021/12/19 12:46:08;;;;;;;31.73;23.23;;;2.40;99.90;;;;;;5015030;28;20700;-77
2021/12/19 12:48:39;;;;;;;32.27;23.30;;;2.40;99.90;;;;;;5023947;28;20188;-76
2021/12/19 12:51:11;;;;;;;32.70;23.97;;;2.30;99.90;;;;;;5026369;28;20454;-77
2021/12/19 12:53:40;;;;;;;31.77;22.70;;;2.30;99.90;;;;;;5013731;28;20192;-77
2021/12/19 12:56:12;;;;;;;36.13;24.60;;;2.40;99.90;;;;;;5022797;28;20282;-77
2021/12/19 12:58:43;;;;;;;32.37;23.27;;;2.30;99.90;;;;;;5021976;28;20203;-77
2021/12/19 13:01:16;;;;;;;34.47;23.70;;;2.40;99.90;;;;;;5019788;28;20208;-77
2021/12/19 13:03:55;;;;;;;29.97;22.03;;;2.50;99.90;;;;;;5023203;28;20457;-77
2021/12/19 13:06:37;;;;;;;31.07;22.33;;;2.60;99.90;;;;;;5020522;28;21410;-77
2021/12/19 13:09:17;;;;;;;35.43;25.00;;;2.60;99.90;;;;;;5012769;28;20199;-77
2021/12/19 13:11:45;;;;;;;35.07;24.80;;;2.50;99.90;;;;;;5015583;28;20218;-77
2021/12/19 13:14:18;;;;;;;32.87;24.70;;;2.50;99.90;;;;;;5023017;28;20485;-77
2021/12/19 13:16:47;;;;;;;31.57;23.80;;;2.50;99.90;;;;;;5024353;28;20450;-77
2021/12/19 13:19:41;;;;;;;29.90;22.33;;;2.50;99.90;;;;;;5016254;28;20450;-77
2021/12/19 13:22:10;;;;;;;27.30;21.33;;;2.50;99.90;;;;;;5023758;28;20538;-77
2021/12/19 13:24:38;;;;;;;28.17;21.90;;;2.40;99.90;;;;;;5021867;28;20216;-77
2021/12/19 13:27:14;;;;;;;31.07;22.17;;;2.40;99.90;;;;;;5018588;28;20469;-77
2021/12/19 13:29:43;;;;;;;33.93;22.93;;;2.50;99.90;;;;;;5022071;28;20470;-77
2021/12/19 13:32:20;;;;;;;32.37;22.40;;;2.50;99.90;;;;;;5020290;28;20196;-77
2021/12/19 13:34:48;;;;;;;28.93;22.30;;;2.60;99.90;;;;;;5022765;28;20904;-77
2021/12/19 13:37:17;;;;;;;29.13;21.30;;;2.60;99.90;;;;;;5020373;28;20195;-76
2021/12/19 13:39:48;;;;;;;29.00;23.17;;;2.60;99.90;;;;;;5024131;28;20196;-77
2021/12/19 13:42:16;;;;;;;31.27;22.73;;;2.60;99.90;;;;;;5021195;28;20815;-77
2021/12/19 13:44:44;;;;;;;29.20;22.63;;;2.60;99.90;;;;;;5022472;28;20746;-77
2021/12/19 13:47:13;;;;;;;30.43;23.03;;;2.70;99.90;;;;;;5015502;28;20224;-77